sensor_id;sensor_type;location;lat;lon;timestamp;pressure;altitude;pressure_sealevel;temperature;humidity
53041;BME280;39326;42.650;23.248;2023-03-04T00:00:48;92533.91;;;3.98;91.48
53041;BME280;39326;42.650;23.248;2023-03-04T00:03:14;92538.53;;;4.01;91.42
53041;BME280;39326;42.650;23.248;2023-03-04T00:05:44;92536.66;;;4.01;91.81
53041;BME280;39326;42.650;23.248;2023-03-04T00:08:10;92538.13;;;3.99;91.79
53041;BME280;39326;42.650;23.248;2023-03-04T00:10:37;92533.25;;;3.85;92.21
53041;BME280;39326;42.650;23.248;2023-03-04T00:13:03;92524.94;;;3.67;92.76
53041;BME280;39326;42.650;23.248;2023-03-04T00:15:30;92526.44;;;3.84;92.52
53041;BME280;39326;42.650;23.248;2023-03-04T00:17:58;92530.94;;;3.83;92.39
53041;BME280;39326;42.650;23.248;2023-03-04T00:20:23;92525.00;;;3.86;92.70
53041;BME280;39326;42.650;23.248;2023-03-04T00:22:50;92527.66;;;3.86;91.97
53041;BME280;39326;42.650;23.248;2023-03-04T00:25:17;92520.66;;;3.94;91.72
53041;BME280;39326;42.650;23.248;2023-03-04T00:27:43;92516.56;;;3.97;91.59
53041;BME280;39326;42.650;23.248;2023-03-04T00:30:10;92517.44;;;4.01;91.76
53041;BME280;39326;42.650;23.248;2023-03-04T00:32:36;92528.38;;;4.03;91.53
53041;BME280;39326;42.650;23.248;2023-03-04T00:35:04;92523.06;;;3.99;91.34
53041;BME280;39326;42.650;23.248;2023-03-04T00:37:30;92518.53;;;4.00;91.48
53041;BME280;39326;42.650;23.248;2023-03-04T00:39:57;92519.31;;;4.00;91.06
53041;BME280;39326;42.650;23.248;2023-03-04T00:42:24;92521.84;;;3.97;91.44
53041;BME280;39326;42.650;23.248;2023-03-04T00:44:50;92524.63;;;4.04;91.54
53041;BME280;39326;42.650;23.248;2023-03-04T00:47:17;92519.03;;;4.05;91.13
53041;BME280;39326;42.650;23.248;2023-03-04T00:49:43;92519.09;;;4.09;91.17
53041;BME280;39326;42.650;23.248;2023-03-04T00:52:09;92523.22;;;4.06;91.25
53041;BME280;39326;42.650;23.248;2023-03-04T00:54:36;92517.94;;;4.06;91.21
53041;BME280;39326;42.650;23.248;2023-03-04T00:57:03;92516.41;;;4.05;91.00
53041;BME280;39326;42.650;23.248;2023-03-04T00:59:29;92521.34;;;4.07;90.72
53041;BME280;39326;42.650;23.248;2023-03-04T01:01:55;92513.41;;;4.07;90.74
53041;BME280;39326;42.650;23.248;2023-03-04T01:04:22;92518.69;;;4.07;90.91
53041;BME280;39326;42.650;23.248;2023-03-04T01:06:48;92516.47;;;4.09;90.88
53041;BME280;39326;42.650;23.248;2023-03-04T01:09:15;92504.75;;;4.06;90.98
53041;BME280;39326;42.650;23.248;2023-03-04T01:11:41;92515.72;;;4.08;90.60
53041;BME280;39326;42.650;23.248;2023-03-04T01:14:07;92511.97;;;4.09;90.78
53041;BME280;39326;42.650;23.248;2023-03-04T01:16:34;92504.91;;;3.98;91.23
53041;BME280;39326;42.650;23.248;2023-03-04T01:19:01;92505.84;;;4.05;91.15
53041;BME280;39326;42.650;23.248;2023-03-04T01:21:27;92512.66;;;4.06;90.89
53041;BME280;39326;42.650;23.248;2023-03-04T01:23:54;92504.22;;;3.85;91.88
53041;BME280;39326;42.650;23.248;2023-03-04T01:26:20;92494.03;;;3.83;92.07
53041;BME280;39326;42.650;23.248;2023-03-04T01:28:46;92499.47;;;3.91;92.15
53041;BME280;39326;42.650;23.248;2023-03-04T01:31:12;92482.47;;;3.88;91.85
53041;BME280;39326;42.650;23.248;2023-03-04T01:33:39;92485.94;;;3.76;91.71
53041;BME280;39326;42.650;23.248;2023-03-04T01:36:05;92494.22;;;3.75;92.76
53041;BME280;39326;42.650;23.248;2023-03-04T01:38:32;92489.16;;;3.85;91.87
53041;BME280;39326;42.650;23.248;2023-03-04T01:40:58;92494.88;;;3.87;91.85
53041;BME280;39326;42.650;23.248;2023-03-04T01:43:26;92488.91;;;3.91;91.48
53041;BME280;39326;42.650;23.248;2023-03-04T01:45:54;92485.59;;;3.94;91.18
53041;BME280;39326;42.650;23.248;2023-03-04T01:48:28;92479.22;;;3.95;91.38
53041;BME280;39326;42.650;23.248;2023-03-04T01:50:55;92478.81;;;3.93;91.20
53041;BME280;39326;42.650;23.248;2023-03-04T01:53:24;92480.75;;;3.96;90.70
53041;BME280;39326;42.650;23.248;2023-03-04T01:56:00;92473.94;;;3.95;91.34
53041;BME280;39326;42.650;23.248;2023-03-04T01:58:31;92474.59;;;3.92;91.41
53041;BME280;39326;42.650;23.248;2023-03-04T02:00:57;92473.09;;;3.91;90.94
53041;BME280;39326;42.650;23.248;2023-03-04T02:03:24;92474.72;;;3.95;91.08
53041;BME280;39326;42.650;23.248;2023-03-04T02:05:51;92481.84;;;3.95;91.13
53041;BME280;39326;42.650;23.248;2023-03-04T02:08:20;92457.44;;;3.82;91.00
53041;BME280;39326;42.650;23.248;2023-03-04T02:10:47;92472.88;;;3.80;90.80
53041;BME280;39326;42.650;23.248;2023-03-04T02:13:14;92480.16;;;3.86;91.12
53041;BME280;39326;42.650;23.248;2023-03-04T02:15:41;92473.84;;;3.91;90.95
53041;BME280;39326;42.650;23.248;2023-03-04T02:18:18;92470.44;;;3.91;91.37
53041;BME280;39326;42.650;23.248;2023-03-04T02:26:09;92468.06;;;3.85;91.08
53041;BME280;39326;42.650;23.248;2023-03-04T02:28:36;92461.63;;;3.67;91.12
53041;BME280;39326;42.650;23.248;2023-03-04T02:31:02;92464.50;;;3.78;90.89
53041;BME280;39326;42.650;23.248;2023-03-04T02:33:28;92466.53;;;3.84;90.51
53041;BME280;39326;42.650;23.248;2023-03-04T02:35:55;92451.16;;;3.86;90.57
53041;BME280;39326;42.650;23.248;2023-03-04T02:38:21;92464.84;;;3.60;90.43
53041;BME280;39326;42.650;23.248;2023-03-04T02:40:50;92461.53;;;3.64;91.01
53041;BME280;39326;42.650;23.248;2023-03-04T02:43:18;92453.97;;;3.62;89.91
53041;BME280;39326;42.650;23.248;2023-03-04T02:45:46;92447.59;;;3.63;90.09
53041;BME280;39326;42.650;23.248;2023-03-04T02:48:15;92441.47;;;3.59;89.36
53041;BME280;39326;42.650;23.248;2023-03-04T02:50:47;92429.47;;;3.46;89.55
53041;BME280;39326;42.650;23.248;2023-03-04T02:53:14;92440.38;;;3.44;89.82
53041;BME280;39326;42.650;23.248;2023-03-04T02:55:41;92444.03;;;3.40;89.76
53041;BME280;39326;42.650;23.248;2023-03-04T02:58:08;92457.19;;;3.40;89.41
53041;BME280;39326;42.650;23.248;2023-03-04T03:00:35;92456.16;;;3.28;89.69
53041;BME280;39326;42.650;23.248;2023-03-04T03:03:01;92451.00;;;3.32;90.06
53041;BME280;39326;42.650;23.248;2023-03-04T03:05:29;92439.69;;;3.31;89.68
53041;BME280;39326;42.650;23.248;2023-03-04T03:07:56;92456.38;;;3.36;89.76
53041;BME280;39326;42.650;23.248;2023-03-04T03:10:23;92460.53;;;3.37;89.62
53041;BME280;39326;42.650;23.248;2023-03-04T03:12:49;92456.53;;;3.43;90.04
53041;BME280;39326;42.650;23.248;2023-03-04T03:15:16;92456.09;;;3.41;89.38
53041;BME280;39326;42.650;23.248;2023-03-04T03:17:43;92448.19;;;3.41;88.77
53041;BME280;39326;42.650;23.248;2023-03-04T03:20:10;92448.13;;;3.37;89.22
53041;BME280;39326;42.650;23.248;2023-03-04T03:22:37;92450.56;;;3.30;89.51
53041;BME280;39326;42.650;23.248;2023-03-04T03:25:04;92441.47;;;3.27;89.12
53041;BME280;39326;42.650;23.248;2023-03-04T03:27:31;92459.97;;;2.99;89.62
53041;BME280;39326;42.650;23.248;2023-03-04T03:29:57;92451.91;;;3.08;89.24
53041;BME280;39326;42.650;23.248;2023-03-04T03:32:23;92456.63;;;3.02;88.87
53041;BME280;39326;42.650;23.248;2023-03-04T03:34:49;92453.16;;;2.98;89.66
53041;BME280;39326;42.650;23.248;2023-03-04T03:37:17;92456.81;;;2.94;89.11
53041;BME280;39326;42.650;23.248;2023-03-04T03:39:44;92452.13;;;2.87;89.13
53041;BME280;39326;42.650;23.248;2023-03-04T03:42:11;92450.72;;;2.77;88.74
53041;BME280;39326;42.650;23.248;2023-03-04T03:44:38;92446.72;;;2.68;89.54
53041;BME280;39326;42.650;23.248;2023-03-04T03:47:05;92436.66;;;2.58;89.31
53041;BME280;39326;42.650;23.248;2023-03-04T03:49:32;92441.16;;;2.57;89.60
53041;BME280;39326;42.650;23.248;2023-03-04T03:51:59;92447.09;;;2.54;89.08
53041;BME280;39326;42.650;23.248;2023-03-04T03:54:25;92437.47;;;2.46;89.10
53041;BME280;39326;42.650;23.248;2023-03-04T03:56:51;92436.56;;;2.54;88.37
53041;BME280;39326;42.650;23.248;2023-03-04T03:59:17;92442.16;;;2.52;87.35
53041;BME280;39326;42.650;23.248;2023-03-04T04:01:44;92430.31;;;2.46;87.21
53041;BME280;39326;42.650;23.248;2023-03-04T04:04:10;92432.19;;;2.46;87.46
53041;BME280;39326;42.650;23.248;2023-03-04T04:06:36;92433.25;;;2.29;88.43
53041;BME280;39326;42.650;23.248;2023-03-04T04:09:03;92432.91;;;2.31;87.95
53041;BME280;39326;42.650;23.248;2023-03-04T04:11:29;92432.50;;;2.29;87.80
53041;BME280;39326;42.650;23.248;2023-03-04T04:13:56;92426.16;;;2.17;88.04
53041;BME280;39326;42.650;23.248;2023-03-04T04:16:23;92429.63;;;2.21;87.86
53041;BME280;39326;42.650;23.248;2023-03-04T04:18:49;92433.09;;;2.10;88.65
53041;BME280;39326;42.650;23.248;2023-03-04T04:21:15;92428.69;;;2.14;88.64
53041;BME280;39326;42.650;23.248;2023-03-04T04:23:41;92429.34;;;2.11;88.74
53041;BME280;39326;42.650;23.248;2023-03-04T04:26:07;92424.84;;;2.11;88.90
53041;BME280;39326;42.650;23.248;2023-03-04T04:28:34;92430.66;;;2.17;88.32
53041;BME280;39326;42.650;23.248;2023-03-04T04:31:01;92425.63;;;2.12;87.98
53041;BME280;39326;42.650;23.248;2023-03-04T04:33:27;92425.19;;;2.10;87.64
53041;BME280;39326;42.650;23.248;2023-03-04T04:35:53;92429.25;;;2.07;87.35
53041;BME280;39326;42.650;23.248;2023-03-04T04:38:20;92432.97;;;2.06;88.39
53041;BME280;39326;42.650;23.248;2023-03-04T04:40:46;92432.66;;;1.95;87.96
53041;BME280;39326;42.650;23.248;2023-03-04T04:43:12;92430.25;;;1.90;88.71
53041;BME280;39326;42.650;23.248;2023-03-04T04:45:39;92429.06;;;1.88;89.64
53041;BME280;39326;42.650;23.248;2023-03-04T04:48:05;92431.13;;;1.82;89.18
53041;BME280;39326;42.650;23.248;2023-03-04T04:50:31;92429.94;;;1.92;89.33
53041;BME280;39326;42.650;23.248;2023-03-04T04:52:57;92432.03;;;1.86;88.32
53041;BME280;39326;42.650;23.248;2023-03-04T04:55:23;92424.13;;;1.86;88.88
53041;BME280;39326;42.650;23.248;2023-03-04T04:57:50;92412.19;;;1.77;88.02
53041;BME280;39326;42.650;23.248;2023-03-04T05:00:16;92430.81;;;1.84;88.35
53041;BME280;39326;42.650;23.248;2023-03-04T05:02:43;92438.69;;;1.84;88.82
53041;BME280;39326;42.650;23.248;2023-03-04T05:05:10;92439.44;;;1.84;88.77
53041;BME280;39326;42.650;23.248;2023-03-04T05:07:36;92443.19;;;1.83;88.37
53041;BME280;39326;42.650;23.248;2023-03-04T05:10:03;92449.97;;;1.84;87.56
53041;BME280;39326;42.650;23.248;2023-03-04T05:12:30;92458.53;;;1.81;87.98
53041;BME280;39326;42.650;23.248;2023-03-04T05:14:56;92455.47;;;1.79;87.79
53041;BME280;39326;42.650;23.248;2023-03-04T05:17:22;92451.28;;;1.78;88.06
53041;BME280;39326;42.650;23.248;2023-03-04T05:19:50;92451.84;;;1.71;88.96
53041;BME280;39326;42.650;23.248;2023-03-04T05:22:16;92449.00;;;1.64;90.23
53041;BME280;39326;42.650;23.248;2023-03-04T05:24:43;92463.16;;;1.72;89.78
53041;BME280;39326;42.650;23.248;2023-03-04T05:27:10;92454.47;;;1.71;90.89
53041;BME280;39326;42.650;23.248;2023-03-04T05:29:37;92455.69;;;1.74;90.90
53041;BME280;39326;42.650;23.248;2023-03-04T05:32:04;92460.94;;;1.86;90.27
53041;BME280;39326;42.650;23.248;2023-03-04T05:34:31;92465.72;;;1.96;91.35
53041;BME280;39326;42.650;23.248;2023-03-04T05:36:57;92465.63;;;2.17;91.14
53041;BME280;39326;42.650;23.248;2023-03-04T05:39:24;92469.31;;;2.29;90.71
53041;BME280;39326;42.650;23.248;2023-03-04T05:41:50;92463.03;;;2.33;90.79
53041;BME280;39326;42.650;23.248;2023-03-04T05:44:16;92467.66;;;2.36;90.36
53041;BME280;39326;42.650;23.248;2023-03-04T05:46:43;92466.00;;;2.44;91.09
53041;BME280;39326;42.650;23.248;2023-03-04T05:49:09;92471.03;;;2.49;90.96
53041;BME280;39326;42.650;23.248;2023-03-04T05:51:36;92463.66;;;2.55;90.63
53041;BME280;39326;42.650;23.248;2023-03-04T05:54:02;92464.63;;;2.62;91.40
53041;BME280;39326;42.650;23.248;2023-03-04T05:56:29;92472.69;;;2.69;91.29
53041;BME280;39326;42.650;23.248;2023-03-04T05:58:58;92472.66;;;2.82;91.55
53041;BME280;39326;42.650;23.248;2023-03-04T06:01:25;92481.09;;;2.87;91.17
53041;BME280;39326;42.650;23.248;2023-03-04T06:03:51;92478.28;;;2.96;91.11
53041;BME280;39326;42.650;23.248;2023-03-04T06:06:18;92475.59;;;2.92;91.47
53041;BME280;39326;42.650;23.248;2023-03-04T06:08:44;92487.84;;;3.00;91.35
53041;BME280;39326;42.650;23.248;2023-03-04T06:11:10;92484.38;;;3.12;91.29
53041;BME280;39326;42.650;23.248;2023-03-04T06:13:37;92484.91;;;3.18;90.89
53041;BME280;39326;42.650;23.248;2023-03-04T06:16:04;92473.22;;;3.03;91.68
53041;BME280;39326;42.650;23.248;2023-03-04T06:18:31;92485.09;;;2.97;91.82
53041;BME280;39326;42.650;23.248;2023-03-04T06:20:58;92489.66;;;3.12;91.47
53041;BME280;39326;42.650;23.248;2023-03-04T06:23:24;92485.72;;;3.06;91.75
53041;BME280;39326;42.650;23.248;2023-03-04T06:25:52;92490.94;;;3.18;90.85
53041;BME280;39326;42.650;23.248;2023-03-04T06:28:19;92494.50;;;3.26;91.22
53041;BME280;39326;42.650;23.248;2023-03-04T06:30:45;92496.97;;;3.34;90.79
53041;BME280;39326;42.650;23.248;2023-03-04T06:33:12;92488.47;;;3.41;90.51
53041;BME280;39326;42.650;23.248;2023-03-04T06:35:38;92492.84;;;3.49;90.85
53041;BME280;39326;42.650;23.248;2023-03-04T06:38:05;92499.03;;;3.41;90.86
53041;BME280;39326;42.650;23.248;2023-03-04T06:40:31;92504.16;;;3.50;90.58
53041;BME280;39326;42.650;23.248;2023-03-04T06:42:57;92501.00;;;3.44;90.92
53041;BME280;39326;42.650;23.248;2023-03-04T06:45:23;92503.63;;;3.44;90.33
53041;BME280;39326;42.650;23.248;2023-03-04T06:47:50;92500.66;;;3.46;89.85
53041;BME280;39326;42.650;23.248;2023-03-04T06:50:16;92506.97;;;3.57;90.07
53041;BME280;39326;42.650;23.248;2023-03-04T06:52:42;92509.94;;;3.55;90.06
53041;BME280;39326;42.650;23.248;2023-03-04T06:55:08;92502.53;;;3.45;90.79
53041;BME280;39326;42.650;23.248;2023-03-04T06:57:34;92506.69;;;3.30;90.72
53041;BME280;39326;42.650;23.248;2023-03-04T07:00:01;92508.72;;;3.53;90.78
53041;BME280;39326;42.650;23.248;2023-03-04T07:02:28;92499.28;;;3.52;90.18
53041;BME280;39326;42.650;23.248;2023-03-04T07:04:54;92511.41;;;3.69;89.51
53041;BME280;39326;42.650;23.248;2023-03-04T07:07:20;92505.09;;;3.73;90.33
53041;BME280;39326;42.650;23.248;2023-03-04T07:09:47;92509.00;;;3.79;89.79
53041;BME280;39326;42.650;23.248;2023-03-04T07:12:13;92509.34;;;3.78;90.37
53041;BME280;39326;42.650;23.248;2023-03-04T07:14:40;92513.09;;;3.93;89.28
53041;BME280;39326;42.650;23.248;2023-03-04T07:17:06;92511.47;;;3.88;89.89
53041;BME280;39326;42.650;23.248;2023-03-04T07:19:33;92515.22;;;3.71;90.23
53041;BME280;39326;42.650;23.248;2023-03-04T07:22:00;92522.28;;;3.83;90.38
53041;BME280;39326;42.650;23.248;2023-03-04T07:24:26;92517.56;;;3.60;90.74
53041;BME280;39326;42.650;23.248;2023-03-04T07:26:52;92518.16;;;3.38;91.44
53041;BME280;39326;42.650;23.248;2023-03-04T07:29:18;92519.28;;;3.53;91.40
53041;BME280;39326;42.650;23.248;2023-03-04T07:31:45;92514.19;;;3.44;90.74
53041;BME280;39326;42.650;23.248;2023-03-04T07:34:12;92520.81;;;3.38;90.61
53041;BME280;39326;42.650;23.248;2023-03-04T07:36:39;92520.38;;;3.36;91.01
53041;BME280;39326;42.650;23.248;2023-03-04T07:39:05;92519.38;;;3.56;90.85
53041;BME280;39326;42.650;23.248;2023-03-04T07:41:32;92523.47;;;3.70;89.68
53041;BME280;39326;42.650;23.248;2023-03-04T07:44:01;92514.97;;;3.76;89.59
53041;BME280;39326;42.650;23.248;2023-03-04T07:46:28;92516.75;;;3.88;89.82
53041;BME280;39326;42.650;23.248;2023-03-04T07:48:55;92516.31;;;3.54;89.45
53041;BME280;39326;42.650;23.248;2023-03-04T07:51:22;92517.34;;;3.81;89.13
53041;BME280;39326;42.650;23.248;2023-03-04T07:53:50;92514.78;;;3.85;89.37
53041;BME280;39326;42.650;23.248;2023-03-04T07:56:19;92513.16;;;3.96;88.67
53041;BME280;39326;42.650;23.248;2023-03-04T07:58:45;92511.97;;;3.94;88.93
53041;BME280;39326;42.650;23.248;2023-03-04T08:01:16;92516.31;;;4.02;88.71
53041;BME280;39326;42.650;23.248;2023-03-04T08:03:42;92511.66;;;4.11;88.85
53041;BME280;39326;42.650;23.248;2023-03-04T08:06:10;92509.50;;;4.17;88.30
53041;BME280;39326;42.650;23.248;2023-03-04T08:08:37;92507.97;;;4.15;88.68
53041;BME280;39326;42.650;23.248;2023-03-04T08:11:05;92508.25;;;3.95;87.94
53041;BME280;39326;42.650;23.248;2023-03-04T08:13:31;92509.78;;;4.11;87.93
53041;BME280;39326;42.650;23.248;2023-03-04T08:15:58;92514.53;;;4.22;88.21
53041;BME280;39326;42.650;23.248;2023-03-04T08:18:24;92510.56;;;4.12;88.30
53041;BME280;39326;42.650;23.248;2023-03-04T08:20:50;92511.53;;;4.23;87.66
53041;BME280;39326;42.650;23.248;2023-03-04T08:23:17;92506.84;;;4.32;87.63
53041;BME280;39326;42.650;23.248;2023-03-04T08:25:43;92506.66;;;4.41;86.82
53041;BME280;39326;42.650;23.248;2023-03-04T08:28:10;92510.69;;;4.54;86.09
53041;BME280;39326;42.650;23.248;2023-03-04T08:30:39;92508.00;;;4.51;85.77
53041;BME280;39326;42.650;23.248;2023-03-04T08:33:05;92506.16;;;4.35;86.56
53041;BME280;39326;42.650;23.248;2023-03-04T08:35:32;92499.31;;;4.50;86.00
53041;BME280;39326;42.650;23.248;2023-03-04T08:37:58;92501.75;;;4.59;86.32
53041;BME280;39326;42.650;23.248;2023-03-04T08:40:24;92494.06;;;4.69;85.71
53041;BME280;39326;42.650;23.248;2023-03-04T08:42:52;92502.75;;;4.89;85.65
53041;BME280;39326;42.650;23.248;2023-03-04T08:45:19;92507.06;;;4.98;85.89
53041;BME280;39326;42.650;23.248;2023-03-04T08:47:45;92500.25;;;4.96;85.81
53041;BME280;39326;42.650;23.248;2023-03-04T08:50:11;92493.50;;;4.80;85.81
53041;BME280;39326;42.650;23.248;2023-03-04T08:52:37;92499.34;;;4.89;85.78
53041;BME280;39326;42.650;23.248;2023-03-04T08:55:04;92497.81;;;4.88;85.44
53041;BME280;39326;42.650;23.248;2023-03-04T08:57:31;92495.84;;;5.04;85.27
53041;BME280;39326;42.650;23.248;2023-03-04T08:59:57;92498.34;;;5.16;85.09
53041;BME280;39326;42.650;23.248;2023-03-04T09:02:23;92502.53;;;5.17;85.00
53041;BME280;39326;42.650;23.248;2023-03-04T09:04:49;92476.25;;;5.05;84.20
53041;BME280;39326;42.650;23.248;2023-03-04T09:07:16;92500.31;;;5.19;84.22
53041;BME280;39326;42.650;23.248;2023-03-04T09:09:42;92488.75;;;5.08;83.63
53041;BME280;39326;42.650;23.248;2023-03-04T09:12:08;92483.75;;;4.84;83.39
53041;BME280;39326;42.650;23.248;2023-03-04T09:14:34;92488.78;;;4.89;83.74
53041;BME280;39326;42.650;23.248;2023-03-04T09:17:02;92486.28;;;4.96;83.78
53041;BME280;39326;42.650;23.248;2023-03-04T09:19:29;92477.78;;;5.06;83.68
53041;BME280;39326;42.650;23.248;2023-03-04T09:21:54;92480.91;;;5.12;83.69
53041;BME280;39326;42.650;23.248;2023-03-04T09:24:21;92482.63;;;5.23;83.04
53041;BME280;39326;42.650;23.248;2023-03-04T09:26:52;92483.56;;;5.35;82.76
53041;BME280;39326;42.650;23.248;2023-03-04T09:29:18;92486.97;;;5.35;82.05
53041;BME280;39326;42.650;23.248;2023-03-04T09:31:44;92483.94;;;5.33;81.76
53041;BME280;39326;42.650;23.248;2023-03-04T09:34:10;92486.06;;;5.47;82.34
53041;BME280;39326;42.650;23.248;2023-03-04T09:36:36;92474.25;;;5.64;81.79
53041;BME280;39326;42.650;23.248;2023-03-04T09:39:03;92475.84;;;5.68;81.24
53041;BME280;39326;42.650;23.248;2023-03-04T09:41:41;92482.66;;;5.69;79.95
53041;BME280;39326;42.650;23.248;2023-03-04T09:44:15;92474.00;;;5.72;80.59
53041;BME280;39326;42.650;23.248;2023-03-04T09:46:47;92474.72;;;5.69;80.96
53041;BME280;39326;42.650;23.248;2023-03-04T09:49:14;92465.03;;;6.03;80.10
53041;BME280;39326;42.650;23.248;2023-03-04T09:51:57;92465.03;;;6.30;80.09
53041;BME280;39326;42.650;23.248;2023-03-04T10:05:42;92454.13;;;6.62;79.25
53041;BME280;39326;42.650;23.248;2023-03-04T10:10:59;92446.59;;;6.64;77.60
53041;BME280;39326;42.650;23.248;2023-03-04T10:13:42;92450.09;;;6.71;77.64
53041;BME280;39326;42.650;23.248;2023-03-04T10:16:15;92441.34;;;6.67;77.26
53041;BME280;39326;42.650;23.248;2023-03-04T10:18:47;92448.06;;;6.31;75.93
53041;BME280;39326;42.650;23.248;2023-03-04T10:21:29;92440.75;;;5.98;76.40
53041;BME280;39326;42.650;23.248;2023-03-04T10:23:58;92427.53;;;5.98;77.68
53041;BME280;39326;42.650;23.248;2023-03-04T10:26:28;92434.91;;;6.38;77.38
53041;BME280;39326;42.650;23.248;2023-03-04T10:28:57;92428.53;;;6.16;77.28
53041;BME280;39326;42.650;23.248;2023-03-04T10:33:59;92423.44;;;6.30;77.08
53041;BME280;39326;42.650;23.248;2023-03-04T10:38:56;92415.97;;;6.66;76.76
53041;BME280;39326;42.650;23.248;2023-03-04T10:41:25;92413.09;;;6.18;76.20
53041;BME280;39326;42.650;23.248;2023-03-04T10:46:40;92411.66;;;5.98;77.24
53041;BME280;39326;42.650;23.248;2023-03-04T10:49:09;92401.09;;;6.28;76.54
53041;BME280;39326;42.650;23.248;2023-03-04T10:51:44;92398.97;;;6.41;76.91
53041;BME280;39326;42.650;23.248;2023-03-04T10:54:32;92397.69;;;6.27;75.59
53041;BME280;39326;42.650;23.248;2023-03-04T10:59:46;92394.50;;;6.45;77.15
53041;BME280;39326;42.650;23.248;2023-03-04T11:02:28;92385.50;;;6.53;76.34
53041;BME280;39326;42.650;23.248;2023-03-04T11:05:18;92386.88;;;6.40;76.70
53041;BME280;39326;42.650;23.248;2023-03-04T11:12:48;92377.19;;;6.84;76.50
53041;BME280;39326;42.650;23.248;2023-03-04T11:15:19;92376.50;;;6.91;75.75
53041;BME280;39326;42.650;23.248;2023-03-04T11:17:51;92373.16;;;6.98;75.64
53041;BME280;39326;42.650;23.248;2023-03-04T11:20:32;92361.66;;;6.83;75.64
53041;BME280;39326;42.650;23.248;2023-03-04T11:23:05;92357.63;;;7.00;75.56
53041;BME280;39326;42.650;23.248;2023-03-04T11:25:39;92357.63;;;6.96;76.29
53041;BME280;39326;42.650;23.248;2023-03-04T11:28:15;92353.22;;;6.74;75.07
53041;BME280;39326;42.650;23.248;2023-03-04T11:30:56;92350.03;;;6.27;75.62
53041;BME280;39326;42.650;23.248;2023-03-04T11:33:52;92347.78;;;5.99;76.95
53041;BME280;39326;42.650;23.248;2023-03-04T11:38:52;92341.59;;;6.18;76.73
53041;BME280;39326;42.650;23.248;2023-03-04T11:41:40;92335.72;;;6.36;77.64
53041;BME280;39326;42.650;23.248;2023-03-04T11:44:08;92336.31;;;6.52;77.83
53041;BME280;39326;42.650;23.248;2023-03-04T12:13:54;92309.81;;;7.33;75.01
53041;BME280;39326;42.650;23.248;2023-03-04T12:21:58;92299.72;;;7.05;74.42
53041;BME280;39326;42.650;23.248;2023-03-04T12:24:36;92297.16;;;7.13;73.23
53041;BME280;39326;42.650;23.248;2023-03-04T12:30:18;92295.06;;;7.36;73.33
53041;BME280;39326;42.650;23.248;2023-03-04T12:33:22;92295.84;;;7.40;74.24
53041;BME280;39326;42.650;23.248;2023-03-04T12:44:24;92286.13;;;7.58;73.04
53041;BME280;39326;42.650;23.248;2023-03-04T12:55:18;92271.59;;;7.38;72.72
53041;BME280;39326;42.650;23.248;2023-03-04T12:57:47;92263.25;;;7.39;72.61
53041;BME280;39326;42.650;23.248;2023-03-04T13:03:43;92259.72;;;7.21;73.85
53041;BME280;39326;42.650;23.248;2023-03-04T13:09:23;92255.56;;;7.20;73.13
53041;BME280;39326;42.650;23.248;2023-03-04T13:11:54;92245.22;;;7.08;73.54
53041;BME280;39326;42.650;23.248;2023-03-04T13:16:48;92247.94;;;7.19;72.78
53041;BME280;39326;42.650;23.248;2023-03-04T13:24:59;92240.34;;;7.17;74.23
53041;BME280;39326;42.650;23.248;2023-03-04T13:41:12;92236.19;;;7.13;73.93
53041;BME280;39326;42.650;23.248;2023-03-04T13:56:34;92226.72;;;7.15;74.75
53041;BME280;39326;42.650;23.248;2023-03-04T14:01:34;92219.09;;;7.10;76.24
53041;BME280;39326;42.650;23.248;2023-03-04T14:04:04;92220.69;;;7.22;75.65
53041;BME280;39326;42.650;23.248;2023-03-04T14:06:49;92213.91;;;7.28;75.51
53041;BME280;39326;42.650;23.248;2023-03-04T14:09:19;92211.97;;;7.21;75.85
53041;BME280;39326;42.650;23.248;2023-03-04T14:11:47;92213.47;;;7.15;76.11
53041;BME280;39326;42.650;23.248;2023-03-04T14:14:15;92209.34;;;7.21;76.35
53041;BME280;39326;42.650;23.248;2023-03-04T14:16:48;92198.47;;;6.82;76.01
53041;BME280;39326;42.650;23.248;2023-03-04T14:19:25;92206.94;;;7.05;76.15
53041;BME280;39326;42.650;23.248;2023-03-04T14:21:52;92200.16;;;7.11;75.48
53041;BME280;39326;42.650;23.248;2023-03-04T14:24:19;92202.09;;;7.18;74.75
53041;BME280;39326;42.650;23.248;2023-03-04T14:26:46;92196.78;;;7.15;75.28
53041;BME280;39326;42.650;23.248;2023-03-04T14:29:25;92196.84;;;7.22;74.54
53041;BME280;39326;42.650;23.248;2023-03-04T14:31:52;92195.72;;;7.26;75.10
53041;BME280;39326;42.650;23.248;2023-03-04T14:36:58;92192.28;;;7.22;74.68
53041;BME280;39326;42.650;23.248;2023-03-04T14:39:26;92177.13;;;7.23;75.42
53041;BME280;39326;42.650;23.248;2023-03-04T14:41:55;92188.84;;;7.18;75.03
53041;BME280;39326;42.650;23.248;2023-03-04T14:44:31;92184.38;;;7.26;75.14
53041;BME280;39326;42.650;23.248;2023-03-04T14:47:13;92191.22;;;7.34;74.50
53041;BME280;39326;42.650;23.248;2023-03-04T14:49:41;92186.59;;;7.20;74.53
53041;BME280;39326;42.650;23.248;2023-03-04T14:52:38;92175.66;;;7.29;74.10
53041;BME280;39326;42.650;23.248;2023-03-04T14:57:43;92175.19;;;7.16;74.25
53041;BME280;39326;42.650;23.248;2023-03-04T15:00:23;92175.59;;;7.18;73.82
53041;BME280;39326;42.650;23.248;2023-03-04T15:02:55;92172.25;;;7.28;73.89
53041;BME280;39326;42.650;23.248;2023-03-04T15:05:32;92174.81;;;7.14;74.18
53041;BME280;39326;42.650;23.248;2023-03-04T15:08:01;92171.06;;;7.22;74.20
53041;BME280;39326;42.650;23.248;2023-03-04T15:10:31;92169.59;;;7.28;74.39
53041;BME280;39326;42.650;23.248;2023-03-04T15:12:59;92169.22;;;7.26;74.55
53041;BME280;39326;42.650;23.248;2023-03-04T15:18:16;92158.94;;;7.21;74.87
53041;BME280;39326;42.650;23.248;2023-03-04T15:20:51;92152.47;;;7.19;74.17
53041;BME280;39326;42.650;23.248;2023-03-04T15:23:17;92149.81;;;7.19;74.02
53041;BME280;39326;42.650;23.248;2023-03-04T15:25:42;92155.91;;;7.19;74.06
53041;BME280;39326;42.650;23.248;2023-03-04T15:28:18;92149.06;;;7.18;73.89